Time;durP1;ratioP1;P1;durP2;ratioP2;P2;SDS_P1;SDS_P2;PMS_P1;PMS_P2;Temp;Humidity;BMP_temperature;BMP_pressure;BME280_temperature;BME280_humidity;BME280_pressure;Samples;Min_cycle;Max_cycle;Signal;HPM_P1;HPM_P2
2022/12/18 04:00:40;;;;;;;13.82;8.90;;;10.60;46.90;;;;;;5921522;22;45930;-69
2022/12/18 04:03:05;;;;;;;13.85;8.52;;;10.50;46.90;;;;;;4933531;28;45364;-65
2022/12/18 04:05:31;;;;;;;13.40;8.13;;;10.50;46.90;;;;;;4948251;28;45251;-57
2022/12/18 04:07:56;;;;;;;13.40;8.60;;;10.50;46.90;;;;;;4955789;28;45939;-55
2022/12/18 04:10:22;;;;;;;12.07;8.50;;;10.50;46.90;;;;;;4955530;28;44913;-59
2022/12/18 04:12:47;;;;;;;13.90;8.55;;;10.50;46.90;;;;;;4991436;28;45206;-60
2022/12/18 04:15:13;;;;;;;15.93;9.80;;;10.50;46.90;;;;;;4988823;28;45566;-56
2022/12/18 04:17:39;;;;;;;15.88;8.98;;;10.50;46.90;;;;;;4976142;28;46025;-58
2022/12/18 04:20:05;;;;;;;17.08;9.45;;;10.50;47.00;;;;;;4977285;28;45265;-59
2022/12/18 04:22:30;;;;;;;13.85;8.65;;;10.50;46.90;;;;;;4994487;28;45235;-58
2022/12/18 04:24:56;;;;;;;14.32;8.45;;;10.50;47.00;;;;;;4996360;28;44981;-56
2022/12/18 04:27:22;;;;;;;15.88;9.20;;;10.50;46.90;;;;;;4992826;28;46777;-57
2022/12/18 04:29:47;;;;;;;15.90;9.57;;;10.40;46.90;;;;;;4995468;28;45464;-64
2022/12/18 04:32:13;;;;;;;16.15;9.07;;;10.40;46.90;;;;;;4993162;28;45164;-61
2022/12/18 04:34:38;;;;;;;14.32;8.77;;;10.40;46.90;;;;;;4996573;28;46448;-55
2022/12/18 04:37:04;;;;;;;14.75;8.57;;;10.40;46.90;;;;;;4993327;28;46119;-58
2022/12/18 04:39:29;;;;;;;14.10;8.27;;;10.40;46.90;;;;;;4993506;28;45169;-63
2022/12/18 04:41:55;;;;;;;15.07;9.15;;;10.40;47.00;;;;;;4994801;28;44799;-59
2022/12/18 04:44:20;;;;;;;15.07;8.35;;;10.30;46.90;;;;;;4992332;28;44735;-62
2022/12/18 04:46:46;;;;;;;14.18;8.38;;;10.30;46.90;;;;;;4994475;28;46199;-59
2022/12/18 04:49:12;;;;;;;13.63;8.90;;;10.40;47.00;;;;;;4992803;28;45343;-59
2022/12/18 04:51:37;;;;;;;15.15;8.90;;;10.30;47.00;;;;;;4993360;28;45383;-64
2022/12/18 04:54:03;;;;;;;12.45;8.50;;;10.30;46.90;;;;;;4993522;28;45730;-59
2022/12/18 04:56:30;;;;;;;14.63;8.55;;;10.30;46.90;;;;;;4991612;28;46062;-59
2022/12/18 04:58:56;;;;;;;13.18;8.05;;;10.30;46.90;;;;;;4993127;28;45358;-63
2022/12/18 05:01:21;;;;;;;13.77;8.52;;;10.30;47.00;;;;;;4991562;28;45340;-61
2022/12/18 05:03:47;;;;;;;14.27;8.93;;;10.30;47.00;;;;;;4995803;28;45257;-62
2022/12/18 05:06:12;;;;;;;14.70;8.77;;;10.20;46.90;;;;;;4989808;28;47344;-58
2022/12/18 05:08:38;;;;;;;13.80;8.57;;;10.20;47.00;;;;;;4994758;28;44682;-58
2022/12/18 05:11:09;;;;;;;13.93;8.45;;;10.20;47.00;;;;;;4994644;28;45266;-60
2022/12/18 05:13:35;;;;;;;13.40;8.70;;;10.20;47.00;;;;;;4992639;28;45232;-63
2022/12/18 05:16:01;;;;;;;16.13;8.95;;;10.20;47.00;;;;;;4994072;28;46294;-64
2022/12/18 05:18:26;;;;;;;13.80;9.05;;;10.20;47.00;;;;;;4992417;28;45282;-57
2022/12/18 05:20:52;;;;;;;15.65;8.98;;;10.20;47.00;;;;;;4989981;28;45541;-60
2022/12/18 05:23:18;;;;;;;12.93;8.07;;;10.20;47.00;;;;;;4988283;28;44653;-57
2022/12/18 05:25:53;;;;;;;14.65;8.40;;;10.20;47.10;;;;;;4991154;28;46001;-62
2022/12/18 05:28:19;;;;;;;14.05;8.02;;;10.10;47.00;;;;;;4991910;28;45254;-58
2022/12/18 05:30:51;;;;;;;12.50;8.40;;;10.10;47.00;;;;;;4993024;28;44978;-59
2022/12/18 05:33:17;;;;;;;13.40;8.65;;;10.10;47.00;;;;;;4995334;28;46300;-63
2022/12/18 05:35:43;;;;;;;13.77;8.40;;;10.10;47.00;;;;;;4990957;28;46265;-58
2022/12/18 05:38:09;;;;;;;15.52;9.35;;;10.10;47.00;;;;;;4970685;28;44601;-56
2022/12/18 05:40:34;;;;;;;13.40;8.05;;;10.10;47.00;;;;;;4994291;28;45504;-61
2022/12/18 05:43:00;;;;;;;12.43;8.15;;;10.10;47.00;;;;;;4995525;28;45205;-55
2022/12/18 05:45:25;;;;;;;12.57;7.88;;;10.10;47.10;;;;;;4993537;28;46167;-53
2022/12/18 05:47:51;;;;;;;13.93;8.38;;;10.00;47.00;;;;;;4995767;28;44649;-57
2022/12/18 05:50:16;;;;;;;14.27;8.65;;;10.00;47.00;;;;;;4994248;28;45410;-58
2022/12/18 05:52:42;;;;;;;13.52;7.93;;;10.00;47.00;;;;;;4994295;28;44905;-62
2022/12/18 05:55:07;;;;;;;14.75;9.02;;;10.00;47.00;;;;;;4995964;28;46012;-57
2022/12/18 05:57:33;;;;;;;13.82;8.07;;;10.00;47.00;;;;;;4993506;28;44919;-59
2022/12/18 05:59:58;;;;;;;14.15;8.57;;;10.00;47.10;;;;;;4996223;28;45078;-56
2022/12/18 06:02:24;;;;;;;14.38;8.85;;;10.00;47.10;;;;;;4991222;28;45395;-56
2022/12/18 06:04:49;;;;;;;14.95;8.57;;;10.00;47.10;;;;;;4991513;28;46886;-62
2022/12/18 06:07:15;;;;;;;12.18;8.15;;;10.00;47.10;;;;;;4980847;28;45222;-57
2022/12/18 06:09:40;;;;;;;15.73;8.50;;;9.90;47.10;;;;;;4994580;28;46220;-60
2022/12/18 06:12:06;;;;;;;15.02;8.68;;;9.90;47.10;;;;;;4995375;28;45260;-57
2022/12/18 06:14:32;;;;;;;13.88;8.55;;;9.90;47.10;;;;;;4997869;28;46944;-58
2022/12/18 06:16:57;;;;;;;15.05;8.75;;;9.90;47.10;;;;;;4995162;28;44679;-61
2022/12/18 06:19:23;;;;;;;13.68;8.38;;;9.90;47.30;;;;;;4993885;28;45195;-52
2022/12/18 06:21:49;;;;;;;12.18;8.00;;;9.90;47.10;;;;;;4998763;28;45250;-57
2022/12/18 06:24:14;;;;;;;11.63;7.97;;;9.90;47.10;;;;;;4993559;28;45884;-62
2022/12/18 06:26:40;;;;;;;13.68;8.45;;;9.90;47.10;;;;;;4987147;28;45197;-57
2022/12/18 06:29:05;;;;;;;13.35;7.82;;;9.90;47.10;;;;;;4992947;28;45328;-52
2022/12/18 06:31:31;;;;;;;10.65;6.90;;;9.80;47.10;;;;;;4994988;28;45143;-49
2022/12/18 06:33:56;;;;;;;14.10;7.75;;;9.80;47.10;;;;;;4993878;28;45925;-53
2022/12/18 06:36:22;;;;;;;11.88;7.68;;;9.80;47.10;;;;;;4987841;28;45799;-52
2022/12/18 06:38:48;;;;;;;11.82;8.18;;;9.80;47.10;;;;;;4996071;28;44887;-53
2022/12/18 06:41:16;;;;;;;12.48;8.02;;;9.80;47.10;;;;;;4993606;28;45604;-58
2022/12/18 06:43:41;;;;;;;11.90;7.45;;;9.80;47.10;;;;;;4978327;28;46062;-54
2022/12/18 06:46:07;;;;;;;14.18;8.05;;;9.80;47.20;;;;;;4998814;28;45297;-55
2022/12/18 06:48:32;;;;;;;11.23;7.57;;;9.80;47.10;;;;;;4975442;28;45683;-54
2022/12/18 06:50:58;;;;;;;13.80;8.07;;;9.80;47.20;;;;;;4993179;28;45648;-51
2022/12/18 06:53:23;;;;;;;14.25;8.52;;;9.80;47.10;;;;;;4985379;28;45862;-53
2022/12/18 06:55:49;;;;;;;14.65;8.32;;;9.70;47.10;;;;;;4985717;28;45409;-57
2022/12/18 06:58:15;;;;;;;12.43;7.97;;;9.70;47.10;;;;;;4997558;28;45348;-54
2022/12/18 07:00:40;;;;;;;11.32;7.20;;;9.70;47.20;;;;;;4993315;28;45460;-54
2022/12/18 07:03:06;;;;;;;13.43;8.32;;;9.70;47.20;;;;;;4992744;28;46041;-52
2022/12/18 07:05:31;;;;;;;14.07;8.52;;;9.70;47.20;;;;;;4993789;28;45432;-58
2022/12/18 07:07:57;;;;;;;14.00;8.00;;;9.70;47.20;;;;;;4992408;28;46881;-54
2022/12/18 07:10:23;;;;;;;14.05;7.90;;;9.70;47.20;;;;;;4990516;28;45223;-52
2022/12/18 07:12:48;;;;;;;13.52;8.60;;;9.70;47.20;;;;;;4996563;28;46150;-53
2022/12/18 07:15:14;;;;;;;12.10;7.32;;;9.70;47.20;;;;;;4992098;28;45609;-60
2022/12/18 07:17:39;;;;;;;13.10;7.63;;;9.70;47.20;;;;;;4991223;28;45550;-51
2022/12/18 07:20:06;;;;;;;14.13;8.25;;;9.70;47.20;;;;;;4990698;28;45346;-67
2022/12/18 07:22:31;;;;;;;13.50;7.53;;;9.60;47.20;;;;;;4984280;28;46758;-56
2022/12/18 07:24:57;;;;;;;13.27;7.65;;;9.70;47.20;;;;;;4998876;28;45490;-58
2022/12/18 07:27:22;;;;;;;13.52;8.13;;;9.60;47.10;;;;;;4987436;28;45333;-56
2022/12/18 07:29:48;;;;;;;13.80;8.27;;;9.60;47.10;;;;;;4989260;28;44824;-57
2022/12/18 07:32:13;;;;;;;13.20;8.05;;;9.60;47.10;;;;;;4991345;28;46366;-55
2022/12/18 07:34:39;;;;;;;11.90;7.28;;;9.60;47.10;;;;;;4996404;28;45679;-55
2022/12/18 07:37:04;;;;;;;14.88;7.93;;;9.60;47.20;;;;;;4995326;28;45430;-52
2022/12/18 07:39:30;;;;;;;12.65;7.75;;;9.60;47.20;;;;;;4986797;28;45173;-54
2022/12/18 07:44:40;;;;;;;12.43;7.95;;;9.60;47.20;;;;;;4997846;28;45196;-53
2022/12/18 07:47:06;;;;;;;11.48;7.55;;;9.50;47.20;;;;;;4989129;28;45127;-57
2022/12/18 07:49:31;;;;;;;12.65;7.32;;;9.60;47.20;;;;;;4987042;28;44833;-55
2022/12/18 07:51:57;;;;;;;11.75;7.55;;;9.50;47.20;;;;;;4983060;28;46208;-54
2022/12/18 07:54:23;;;;;;;12.10;7.20;;;9.50;47.20;;;;;;4993956;28;45002;-64
2022/12/18 07:56:48;;;;;;;12.15;7.65;;;9.50;47.20;;;;;;4997424;28;46323;-56
2022/12/18 07:59:14;;;;;;;15.77;7.97;;;9.50;47.20;;;;;;4992217;28;45566;-53
2022/12/18 08:01:39;;;;;;;11.73;7.47;;;9.50;47.10;;;;;;4989116;28;46185;-59
2022/12/18 08:04:05;;;;;;;12.55;7.72;;;9.50;47.20;;;;;;4994797;28;45507;-56
2022/12/18 08:06:30;;;;;;;12.85;8.13;;;9.50;47.20;;;;;;4996523;28;45700;-61
2022/12/18 08:08:56;;;;;;;12.30;7.70;;;9.50;47.20;;;;;;4997342;28;45818;-52
2022/12/18 08:11:22;;;;;;;13.20;7.47;;;9.50;47.20;;;;;;4993602;28;46088;-56
2022/12/18 08:13:48;;;;;;;10.30;6.85;;;9.50;47.20;;;;;;4993088;28;45677;-51
2022/12/18 08:16:13;;;;;;;10.73;6.97;;;9.50;47.20;;;;;;4997806;28;45565;-57
2022/12/18 08:18:39;;;;;;;13.32;7.80;;;9.50;47.20;;;;;;4993901;28;45217;-61
2022/12/18 08:21:11;;;;;;;12.60;7.45;;;9.50;47.20;;;;;;4996055;28;45858;-68
2022/12/18 08:23:37;;;;;;;10.27;6.50;;;9.50;47.20;;;;;;4977380;28;46287;-57
2022/12/18 08:26:03;;;;;;;11.90;7.32;;;9.40;47.20;;;;;;4992928;28;45281;-55
2022/12/18 08:28:28;;;;;;;11.20;7.05;;;9.40;47.20;;;;;;4999995;28;45206;-57
2022/12/18 08:30:54;;;;;;;12.20;7.55;;;9.40;47.20;;;;;;4991521;28;45877;-55
2022/12/18 08:33:19;;;;;;;12.35;7.43;;;9.40;47.20;;;;;;4991237;28;44776;-62
2022/12/18 08:35:45;;;;;;;12.43;7.40;;;9.40;47.20;;;;;;4992599;28;46367;-53
2022/12/18 08:38:10;;;;;;;13.18;8.20;;;9.40;47.20;;;;;;4995008;28;45347;-58
2022/12/18 08:40:36;;;;;;;10.55;7.13;;;9.40;47.20;;;;;;4993042;28;45950;-57
2022/12/18 08:45:45;;;;;;;11.13;6.78;;;9.40;47.20;;;;;;4998350;28;45565;-55
2022/12/18 08:48:11;;;;;;;11.05;7.05;;;9.40;47.20;;;;;;4972383;28;45299;-57
2022/12/18 08:50:36;;;;;;;11.85;7.75;;;9.40;47.20;;;;;;4989898;28;46331;-58
2022/12/18 08:53:02;;;;;;;14.50;8.00;;;9.30;47.20;;;;;;4992663;28;45532;-52
2022/12/18 08:55:27;;;;;;;11.68;7.13;;;9.30;47.10;;;;;;4988232;28;45270;-56
2022/12/18 08:57:53;;;;;;;12.15;7.28;;;9.30;47.10;;;;;;4994232;28;45417;-54
2022/12/18 09:00:19;;;;;;;10.57;6.63;;;9.30;47.20;;;;;;4992265;28;45844;-58
2022/12/18 09:02:45;;;;;;;12.23;7.10;;;9.30;47.10;;;;;;4964706;28;45147;-67
2022/12/18 09:05:10;;;;;;;10.00;6.22;;;9.30;47.10;;;;;;4970958;28;45338;-55
2022/12/18 09:07:36;;;;;;;13.32;7.13;;;9.30;47.10;;;;;;4951597;28;45226;-55
2022/12/18 09:10:02;;;;;;;10.35;6.88;;;9.30;47.10;;;;;;4968584;28;46170;-57
2022/12/18 09:12:27;;;;;;;11.20;6.82;;;9.30;47.10;;;;;;4972660;28;45758;-60
2022/12/18 09:14:53;;;;;;;11.60;7.28;;;9.30;47.20;;;;;;4949165;28;45459;-59
2022/12/18 09:17:18;;;;;;;12.05;7.35;;;9.30;47.20;;;;;;4971603;28;44708;-59
2022/12/18 09:19:44;;;;;;;11.68;6.85;;;9.20;47.10;;;;;;4972631;28;45883;-53
2022/12/18 09:22:09;;;;;;;11.68;6.80;;;9.30;47.10;;;;;;4956578;28;45442;-54
2022/12/18 09:24:35;;;;;;;11.52;7.47;;;9.30;47.10;;;;;;4967643;28;45152;-55
2022/12/18 09:27:01;;;;;;;11.45;7.28;;;9.30;47.10;;;;;;4972835;28;46118;-56
2022/12/18 09:29:26;;;;;;;10.77;7.00;;;9.30;47.10;;;;;;4966581;28;46162;-54
2022/12/18 09:31:52;;;;;;;10.45;6.53;;;9.20;47.10;;;;;;4971487;28;45460;-59
2022/12/18 09:34:17;;;;;;;10.27;6.57;;;9.30;47.20;;;;;;4972034;28;45264;-58
2022/12/18 09:36:43;;;;;;;12.85;7.20;;;9.20;47.10;;;;;;4975737;28;45049;-58
2022/12/18 09:39:08;;;;;;;12.25;7.32;;;9.20;47.10;;;;;;4974065;28;46122;-58
2022/12/18 09:41:47;;;;;;;11.32;6.82;;;9.20;47.10;;;;;;4968235;28;45546;-55
2022/12/18 09:44:28;;;;;;;11.80;7.10;;;9.30;47.10;;;;;;4951016;28;45260;-58
2022/12/18 09:47:10;;;;;;;10.70;6.63;;;9.20;47.00;;;;;;4954023;28;45940;-57
2022/12/18 09:49:40;;;;;;;11.52;6.78;;;9.20;47.00;;;;;;4956940;28;45937;-55
2022/12/18 09:52:26;;;;;;;11.60;6.50;;;9.20;47.10;;;;;;4938760;28;45188;-57
2022/12/18 09:55:03;;;;;;;10.52;7.18;;;9.20;47.20;;;;;;4950752;28;45034;-59
2022/12/18 09:57:29;;;;;;;9.85;5.95;;;9.20;47.10;;;;;;4950450;28;45415;-56
2022/12/18 10:00:17;;;;;;;12.52;7.15;;;9.20;47.10;;;;;;4940100;28;46079;-57
2022/12/18 10:02:43;;;;;;;11.20;6.40;;;9.20;47.10;;;;;;4980831;28;45431;-57
2022/12/18 10:05:14;;;;;;;9.95;6.82;;;9.20;47.00;;;;;;4994532;28;45065;-64
2022/12/18 10:07:58;;;;;;;12.18;6.88;;;9.20;47.10;;;;;;4995642;28;45215;-58
2022/12/18 10:10:32;;;;;;;10.98;6.80;;;9.20;47.10;;;;;;4993112;28;46291;-56
2022/12/18 10:13:08;;;;;;;11.15;6.97;;;9.20;47.00;;;;;;4975746;28;45312;-52
2022/12/18 10:16:05;;;;;;;12.05;7.07;;;9.20;47.00;;;;;;4975019;28;45606;-59
2022/12/18 10:18:56;;;;;;;10.82;6.60;;;9.20;47.00;;;;;;4987732;28;44994;-53
2022/12/18 10:21:30;;;;;;;11.80;6.78;;;9.20;46.90;;;;;;4979547;28;45307;-58
2022/12/18 10:24:16;;;;;;;10.18;6.32;;;9.20;47.00;;;;;;4970878;28;45364;-55
2022/12/18 10:26:42;;;;;;;11.63;6.80;;;9.20;46.90;;;;;;4977293;28;45592;-56
2022/12/18 10:29:14;;;;;;;12.13;6.70;;;9.10;46.90;;;;;;4961750;28;45407;-55
2022/12/18 10:31:40;;;;;;;13.30;7.18;;;9.20;46.90;;;;;;4973799;28;45996;-63
2022/12/18 10:34:15;;;;;;;12.50;7.07;;;9.20;46.90;;;;;;4990839;28;45813;-56
2022/12/18 10:36:42;;;;;;;12.80;7.13;;;9.20;46.90;;;;;;5002622;28;45674;-56
2022/12/18 10:39:24;;;;;;;10.15;6.70;;;9.10;46.80;;;;;;4970309;28;45009;-58
2022/12/18 10:41:50;;;;;;;11.18;7.20;;;9.20;46.80;;;;;;4992428;28;45981;-53
2022/12/18 10:44:17;;;;;;;11.70;6.82;;;9.10;46.80;;;;;;4971568;28;44938;-58
2022/12/18 10:46:44;;;;;;;10.60;6.60;;;9.20;46.80;;;;;;4996742;28;45301;-55
2022/12/18 10:49:22;;;;;;;11.65;6.78;;;9.10;46.70;;;;;;4989937;28;45272;-53
2022/12/18 10:51:47;;;;;;;11.30;6.65;;;9.20;46.80;;;;;;4980001;28;45939;-59
2022/12/18 10:54:18;;;;;;;10.88;6.47;;;9.10;46.80;;;;;;4979812;28;45248;-53
2022/12/18 10:56:43;;;;;;;10.35;6.60;;;9.10;46.80;;;;;;4972792;28;45953;-57
2022/12/18 10:59:11;;;;;;;10.90;6.70;;;9.10;46.80;;;;;;4984617;28;45225;-54
2022/12/18 11:01:46;;;;;;;11.43;6.55;;;9.10;46.70;;;;;;4991475;28;46094;-63
2022/12/18 11:04:32;;;;;;;9.98;6.40;;;9.10;46.80;;;;;;4993416;28;44871;-53
2022/12/18 11:07:05;;;;;;;10.13;6.28;;;9.10;46.80;;;;;;4957323;28;45337;-56
2022/12/18 11:09:35;;;;;;;12.10;6.88;;;9.10;46.70;;;;;;4998374;28;45924;-52
2022/12/18 11:12:08;;;;;;;10.80;6.57;;;9.10;46.70;;;;;;4990766;28;46000;-67
2022/12/18 11:14:45;;;;;;;10.88;7.03;;;9.10;46.70;;;;;;4970906;28;45480;-56
2022/12/18 11:17:40;;;;;;;9.38;5.95;;;9.10;46.70;;;;;;4975335;28;45345;-55
2022/12/18 11:20:19;;;;;;;12.20;6.63;;;9.10;46.80;;;;;;4976031;28;45362;-53
2022/12/18 11:22:45;;;;;;;11.52;6.82;;;9.10;46.80;;;;;;4989900;28;47056;-58
2022/12/18 11:25:10;;;;;;;11.18;6.28;;;9.10;46.80;;;;;;4954539;28;45280;-57
2022/12/18 11:27:37;;;;;;;11.50;6.65;;;9.10;46.80;;;;;;5002461;28;45326;-49
2022/12/18 11:30:20;;;;;;;10.95;6.15;;;9.10;46.80;;;;;;4958004;28;45472;-56
2022/12/18 11:32:57;;;;;;;12.13;6.90;;;9.10;46.80;;;;;;4989606;28;46086;-59
2022/12/18 11:35:34;;;;;;;10.20;6.18;;;9.00;46.60;;;;;;4987082;28;45203;-49
2022/12/18 11:38:05;;;;;;;10.50;6.47;;;9.10;46.70;;;;;;4974380;28;45192;-55
2022/12/18 11:40:35;;;;;;;10.00;6.07;;;9.10;46.70;;;;;;4975639;28;45551;-56
2022/12/18 11:43:08;;;;;;;11.15;6.20;;;9.10;46.70;;;;;;4974535;28;45992;-54
2022/12/18 11:45:49;;;;;;;10.48;6.35;;;9.00;46.60;;;;;;4972532;28;45572;-58
2022/12/18 11:48:21;;;;;;;11.27;6.30;;;9.00;47.30;;;;;;4977687;28;45551;-63
2022/12/18 11:50:52;;;;;;;9.73;5.70;;;9.00;46.70;;;;;;4977544;28;45402;-54
2022/12/18 11:53:17;;;;;;;8.55;5.60;;;9.00;46.60;;;;;;4961799;28;45849;-55
2022/12/18 11:56:05;;;;;;;10.35;6.20;;;9.00;46.70;;;;;;4961727;28;45311;-58
2022/12/18 11:58:45;;;;;;;9.70;5.80;;;9.00;46.70;;;;;;4998862;28;44863;-53
2022/12/18 12:01:23;;;;;;;11.00;6.35;;;9.00;46.70;;;;;;4975877;28;45751;-57
2022/12/18 12:04:00;;;;;;;12.65;6.60;;;9.00;46.70;;;;;;4986134;28;45891;-53
2022/12/18 12:06:32;;;;;;;10.95;6.10;;;9.00;46.70;;;;;;4956312;28;45068;-54
2022/12/18 12:09:36;;;;;;;12.50;6.88;;;9.00;46.70;;;;;;4983903;28;45518;-56
2022/12/18 12:12:15;;;;;;;9.52;5.95;;;9.00;46.60;;;;;;4947901;28;45601;-55
2022/12/18 12:15:13;;;;;;;13.55;6.45;;;9.00;46.70;;;;;;4953497;28;45916;-57
2022/12/18 12:17:46;;;;;;;10.25;5.97;;;9.00;46.70;;;;;;4904944;28;45384;-58
2022/12/18 12:20:22;;;;;;;10.63;6.28;;;9.00;46.60;;;;;;4988720;28;45381;-57
2022/12/18 12:23:01;;;;;;;10.38;6.45;;;8.90;46.60;;;;;;4988868;28;45442;-55
2022/12/18 12:25:44;;;;;;;10.30;6.63;;;9.00;46.60;;;;;;4961925;28;46189;-55
2022/12/18 12:28:23;;;;;;;9.45;6.07;;;9.00;46.70;;;;;;4979643;28;45297;-62
2022/12/18 12:31:10;;;;;;;9.85;5.85;;;9.00;46.70;;;;;;4972970;28;45412;-55
2022/12/18 12:33:45;;;;;;;10.82;6.30;;;8.90;46.70;;;;;;4990720;28;45567;-53
2022/12/18 12:36:19;;;;;;;11.20;6.68;;;8.90;46.70;;;;;;4969877;28;46051;-61
2022/12/18 12:38:50;;;;;;;10.40;6.25;;;9.00;46.70;;;;;;4997864;28;45336;-61
2022/12/18 12:44:04;;;;;;;10.57;6.22;;;8.90;46.60;;;;;;4961800;28;45052;-63
2022/12/18 12:46:31;;;;;;;8.93;5.50;;;8.90;46.60;;;;;;4977971;28;46041;-61
2022/12/18 12:49:01;;;;;;;11.80;6.75;;;8.90;46.60;;;;;;4956925;28;45497;-57
2022/12/18 12:51:37;;;;;;;9.65;5.97;;;8.90;46.60;;;;;;4980782;28;45817;-56
2022/12/18 12:54:04;;;;;;;10.95;6.10;;;8.90;46.60;;;;;;4979140;28;45169;-57
2022/12/18 12:56:43;;;;;;;11.25;6.53;;;8.90;46.60;;;;;;4961401;28;46180;-60
2022/12/18 12:59:30;;;;;;;9.68;6.10;;;8.90;46.60;;;;;;4983526;28;44656;-56
2022/12/18 13:02:06;;;;;;;10.85;6.57;;;8.90;46.70;;;;;;4995256;28;44852;-57
2022/12/18 13:04:47;;;;;;;10.82;6.18;;;8.90;46.60;;;;;;4979970;28;45645;-54
2022/12/18 13:07:20;;;;;;;9.32;6.25;;;8.90;46.60;;;;;;4991809;28;46035;-57
2022/12/18 13:10:19;;;;;;;11.60;6.38;;;8.90;46.60;;;;;;4980351;28;45511;-57
2022/12/18 13:12:59;;;;;;;9.95;5.45;;;8.90;46.60;;;;;;4992156;28;45081;-60
2022/12/18 13:15:44;;;;;;;11.73;6.32;;;8.90;46.60;;;;;;4974710;28;45512;-58
2022/12/18 13:18:10;;;;;;;10.05;6.07;;;8.80;46.50;;;;;;4993427;28;45937;-56
2022/12/18 13:20:49;;;;;;;8.85;5.93;;;8.80;46.60;;;;;;4995668;28;45522;-54
2022/12/18 13:23:24;;;;;;;9.05;5.53;;;8.80;46.60;;;;;;4961060;28;44670;-57
2022/12/18 13:25:56;;;;;;;11.57;6.28;;;8.80;46.60;;;;;;4998076;28;45261;-55
2022/12/18 13:28:47;;;;;;;10.68;6.22;;;8.80;46.60;;;;;;4976634;28;46778;-52
2022/12/18 13:31:13;;;;;;;10.27;6.45;;;8.80;46.60;;;;;;4996535;28;45679;-58
2022/12/18 13:33:40;;;;;;;11.90;6.50;;;8.80;46.60;;;;;;5001287;28;45251;-58
2022/12/18 13:36:16;;;;;;;9.35;5.70;;;8.80;46.60;;;;;;4993134;28;44971;-55
2022/12/18 13:38:43;;;;;;;8.50;5.57;;;8.80;47.00;;;;;;4990795;28;46217;-53
2022/12/18 13:41:25;;;;;;;9.70;5.80;;;8.80;46.60;;;;;;4978842;28;45350;-54
2022/12/18 13:43:57;;;;;;;8.18;4.97;;;8.80;46.60;;;;;;4977668;28;45304;-56
2022/12/18 13:46:27;;;;;;;10.23;6.53;;;8.80;46.60;;;;;;4977111;28;45500;-56
2022/12/18 13:49:01;;;;;;;10.73;5.80;;;8.80;46.60;;;;;;4986897;28;47592;-58
2022/12/18 13:51:26;;;;;;;9.50;5.80;;;8.80;46.60;;;;;;4972772;28;44908;-55
2022/12/18 13:53:55;;;;;;;9.70;6.20;;;8.80;46.60;;;;;;4963357;28;45230;-57
2022/12/18 13:56:23;;;;;;;10.55;5.95;;;8.70;46.60;;;;;;4978438;28;45106;-56
2022/12/18 13:59:18;;;;;;;8.77;5.57;;;8.70;46.60;;;;;;4995553;28;46213;-51
2022/12/18 14:01:47;;;;;;;9.35;6.22;;;8.70;46.60;;;;;;4996017;28;44977;-58
2022/12/18 14:04:24;;;;;;;9.65;5.93;;;8.70;46.60;;;;;;4994380;28;45605;-50
2022/12/18 14:06:55;;;;;;;10.38;6.00;;;8.70;46.70;;;;;;4997052;28;45729;-50
2022/12/18 14:09:25;;;;;;;11.23;5.93;;;8.70;46.70;;;;;;4990661;28;46240;-56
2022/12/18 14:11:51;;;;;;;9.35;5.82;;;8.70;46.70;;;;;;4979776;28;45318;-55
2022/12/18 14:14:17;;;;;;;8.43;5.55;;;8.70;46.70;;;;;;4993660;28;45163;-56
2022/12/18 14:16:42;;;;;;;8.85;5.38;;;8.70;46.70;;;;;;4979322;28;44796;-58
2022/12/18 14:19:13;;;;;;;11.63;5.85;;;8.70;46.70;;;;;;4980672;28;46255;-54
2022/12/18 14:21:39;;;;;;;8.98;5.88;;;8.70;46.60;;;;;;4956923;28;45478;-59
2022/12/18 14:24:05;;;;;;;8.63;5.80;;;8.70;46.60;;;;;;4993580;28;45404;-61
2022/12/18 14:26:32;;;;;;;9.90;5.93;;;8.70;46.60;;;;;;4993631;28;44800;-54
2022/12/18 14:29:02;;;;;;;7.75;5.10;;;8.70;46.60;;;;;;4991874;28;45766;-54
2022/12/18 14:31:30;;;;;;;10.02;5.70;;;8.70;46.60;;;;;;4974592;28;45352;-53
2022/12/18 14:33:56;;;;;;;10.55;5.88;;;8.70;46.60;;;;;;4992204;28;45155;-55
2022/12/18 14:36:23;;;;;;;9.25;5.97;;;8.70;46.70;;;;;;4991140;28;45314;-55
2022/12/18 14:38:58;;;;;;;9.27;5.88;;;8.60;46.60;;;;;;4994014;28;46213;-56
2022/12/18 14:41:23;;;;;;;9.32;5.88;;;8.70;46.60;;;;;;4991707;28;46157;-60
2022/12/18 14:43:50;;;;;;;9.55;5.35;;;8.70;46.70;;;;;;4972179;28;45656;-49
2022/12/18 14:46:25;;;;;;;8.63;5.35;;;8.70;46.70;;;;;;4995841;28;45099;-64
2022/12/18 14:48:50;;;;;;;7.50;5.10;;;8.70;46.70;;;;;;4984055;28;46195;-58
2022/12/18 14:51:17;;;;;;;9.40;5.95;;;8.70;46.70;;;;;;4976030;28;45494;-51
2022/12/18 14:53:45;;;;;;;9.55;5.57;;;8.60;46.60;;;;;;4994333;28;45509;-60
2022/12/18 14:56:21;;;;;;;8.70;5.75;;;8.60;46.60;;;;;;4962556;28;45446;-56
2022/12/18 14:59:03;;;;;;;8.45;5.40;;;8.60;46.60;;;;;;4991339;28;46055;-54
2022/12/18 15:01:35;;;;;;;8.05;5.28;;;8.60;46.50;;;;;;4972012;28;45297;-54
2022/12/18 15:04:00;;;;;;;9.70;5.78;;;8.60;46.60;;;;;;4975476;28;45339;-52
2022/12/18 15:06:34;;;;;;;8.90;5.40;;;8.60;46.60;;;;;;4973138;28;45467;-54
2022/12/18 15:09:01;;;;;;;9.18;5.72;;;8.60;46.60;;;;;;4991451;28;45994;-61
2022/12/18 15:11:44;;;;;;;7.25;5.20;;;8.60;46.70;;;;;;4996633;28;45164;-56
2022/12/18 15:14:23;;;;;;;;;;;8.60;46.60;;;;;;4982657;28;45378;-52
2022/12/18 15:16:55;;;;;;;8.63;4.95;;;8.60;46.70;;;;;;4980237;28;45429;-54
2022/12/18 15:19:22;;;;;;;7.10;4.85;;;8.60;46.70;;;;;;4978666;28;45991;-61
2022/12/18 15:21:47;;;;;;;9.63;5.40;;;8.60;46.70;;;;;;4983191;28;44634;-56
2022/12/18 15:24:23;;;;;;;9.93;5.63;;;8.60;46.70;;;;;;4959824;28;45341;-55
2022/12/18 15:26:48;;;;;;;10.10;5.50;;;8.60;46.70;;;;;;4978999;28;45163;-55
2022/12/18 15:29:23;;;;;;;6.80;4.68;;;8.50;46.70;;;;;;4993128;28;45879;-52
2022/12/18 15:32:05;;;;;;;8.27;4.85;;;8.60;46.70;;;;;;4995077;28;45189;-64
2022/12/18 15:34:31;;;;;;;8.45;5.10;;;8.50;46.70;;;;;;4993666;28;45460;-62
2022/12/18 15:36:56;;;;;;;8.23;5.40;;;8.50;46.70;;;;;;4975543;28;45569;-61
2022/12/18 15:39:22;;;;;;;9.93;5.88;;;8.50;46.70;;;;;;4994776;28;46283;-59
2022/12/18 15:44:31;;;;;;;9.00;5.25;;;8.50;46.70;;;;;;4991010;28;45528;-57
2022/12/18 15:46:57;;;;;;;8.27;5.50;;;8.50;46.70;;;;;;4977718;28;45384;-57
2022/12/18 15:49:23;;;;;;;7.82;5.45;;;8.50;46.70;;;;;;4994777;28;46168;-57
2022/12/18 15:51:53;;;;;;;7.65;4.93;;;8.50;46.70;;;;;;4998278;28;45346;-54
2022/12/18 15:57:22;;;;;;;10.13;5.63;;;8.40;46.70;;;;;;4963350;28;45157;-55
2022/12/18 15:57:22;;;;;;;8.88;5.25;;;8.50;46.80;;;;;;4978893;28;45510;-59
2022/12/18 15:59:48;;;;;;;9.32;5.07;;;8.50;46.70;;;;;;4991044;28;45784;-55
2022/12/18 16:02:15;;;;;;;9.23;5.70;;;8.50;46.70;;;;;;4994473;28;45311;-56
2022/12/18 16:04:41;;;;;;;9.13;5.20;;;8.50;46.70;;;;;;4976516;28;44913;-59
2022/12/18 16:07:07;;;;;;;8.65;5.10;;;8.40;46.70;;;;;;4995058;28;45964;-56
2022/12/18 16:09:33;;;;;;;7.65;4.95;;;8.40;46.70;;;;;;4993702;28;46243;-54
2022/12/18 16:12:01;;;;;;;8.00;5.15;;;8.50;46.70;;;;;;4993955;28;45463;-58
2022/12/18 16:14:28;;;;;;;8.45;5.35;;;8.40;46.70;;;;;;4993301;28;46238;-57
2022/12/18 16:16:56;;;;;;;8.90;5.68;;;8.40;46.70;;;;;;4998894;28;45182;-55
2022/12/18 16:19:22;;;;;;;7.95;4.78;;;8.40;46.70;;;;;;4997017;28;46212;-57
2022/12/18 16:21:48;;;;;;;9.93;5.75;;;8.40;46.70;;;;;;4999562;28;45308;-58
2022/12/18 16:24:17;;;;;;;11.80;6.05;;;8.40;46.70;;;;;;4978594;28;45311;-53
2022/12/18 16:26:43;;;;;;;9.32;5.47;;;8.40;46.70;;;;;;4994210;28;44950;-55
2022/12/18 16:29:09;;;;;;;8.65;5.20;;;8.40;46.70;;;;;;4998321;28;46204;-57
2022/12/18 16:31:35;;;;;;;9.13;5.65;;;8.40;47.30;;;;;;5001052;28;44923;-53
2022/12/18 16:34:30;;;;;;;8.20;4.93;;;8.40;46.70;;;;;;4995418;28;45282;-51
2022/12/18 16:37:00;;;;;;;8.05;5.28;;;8.40;47.30;;;;;;4986275;28;45380;-58
2022/12/18 16:39:26;;;;;;;8.15;5.15;;;8.40;46.70;;;;;;4997555;28;46029;-58
2022/12/18 16:41:51;;;;;;;9.50;5.43;;;8.40;46.70;;;;;;4999217;28;45145;-56
2022/12/18 16:44:17;;;;;;;8.30;5.05;;;8.30;46.70;;;;;;5002730;28;45292;-54
2022/12/18 16:46:45;;;;;;;9.55;5.25;;;8.40;46.70;;;;;;4996801;28;45437;-61
2022/12/18 16:49:11;;;;;;;8.73;5.55;;;8.30;46.60;;;;;;4997964;28;46057;-51
2022/12/18 16:51:36;;;;;;;9.57;5.65;;;8.30;46.70;;;;;;4999687;28;45066;-54
2022/12/18 16:54:02;;;;;;;10.68;5.53;;;8.30;46.70;;;;;;4997120;28;45485;-58
2022/12/18 16:56:27;;;;;;;10.35;5.40;;;8.30;46.70;;;;;;4995368;28;45240;-54
2022/12/18 16:58:54;;;;;;;7.65;4.90;;;8.30;46.60;;;;;;4997702;28;45980;-54
2022/12/18 17:01:20;;;;;;;8.77;5.32;;;8.30;46.60;;;;;;4997958;28;44664;-50
2022/12/18 17:03:52;;;;;;;9.13;5.68;;;8.30;46.60;;;;;;4994726;28;45578;-54
2022/12/18 17:06:17;;;;;;;9.50;5.50;;;8.30;46.60;;;;;;4999008;28;44949;-57
2022/12/18 17:08:44;;;;;;;8.40;5.57;;;8.30;46.70;;;;;;4976739;28;47143;-56
2022/12/18 17:11:09;;;;;;;8.68;5.28;;;8.30;46.70;;;;;;4994379;28;45564;-56